createdAt,value
2023-01-18T00:00:37.351Z,17.40
2023-01-18T00:03:05.052Z,21.52
2023-01-18T00:05:31.826Z,21.75
2023-01-18T00:07:58.581Z,16.67
2023-01-18T00:10:25.622Z,18.80
2023-01-18T00:12:52.433Z,17.55
2023-01-18T00:15:19.176Z,18.17
2023-01-18T00:17:51.869Z,23.05
2023-01-18T00:20:21.451Z,19.42
2023-01-18T00:22:49.721Z,22.95
2023-01-18T00:25:16.956Z,23.60
2023-01-18T00:27:48.889Z,17.40
2023-01-18T00:30:18.080Z,20.27
2023-01-18T00:32:45.235Z,17.15
2023-01-18T00:35:13.087Z,21.45
2023-01-18T00:37:40.179Z,20.60
2023-01-18T00:40:08.828Z,15.40
2023-01-18T00:42:54.228Z,19.13
2023-01-18T00:45:21.868Z,19.05
2023-01-18T00:47:48.833Z,16.05
2023-01-18T00:50:15.818Z,17.42
2023-01-18T00:52:46.247Z,18.42
2023-01-18T00:55:14.481Z,19.20
2023-01-18T00:57:41.859Z,18.88
2023-01-18T01:00:11.217Z,20.77
2023-01-18T01:02:41.939Z,16.17
2023-01-18T01:05:39.001Z,15.15
2023-01-18T01:08:07.193Z,14.73
2023-01-18T01:10:36.877Z,18.25
2023-01-18T01:13:22.329Z,20.98
2023-01-18T01:16:07.782Z,17.27
2023-01-18T01:18:52.965Z,19.45
2023-01-18T01:21:38.235Z,25.05
2023-01-18T01:24:23.612Z,16.23
2023-01-18T01:26:50.405Z,19.27
2023-01-18T01:29:17.585Z,18.88
2023-01-18T01:31:44.491Z,20.92
2023-01-18T01:34:11.217Z,21.00
2023-01-18T01:36:38.145Z,19.88
2023-01-18T01:39:07.094Z,19.40
2023-01-18T01:41:35.350Z,19.10
2023-01-18T01:44:29.898Z,17.38
2023-01-18T01:46:59.595Z,19.10
2023-01-18T01:49:32.891Z,21.48
2023-01-18T01:52:08.275Z,20.45
2023-01-18T01:54:40.391Z,23.10
2023-01-18T01:57:11.819Z,20.20
2023-01-18T01:59:44.617Z,18.15
2023-01-18T02:02:11.975Z,20.90
2023-01-18T02:04:44.129Z,17.15
2023-01-18T02:07:14.039Z,23.60
2023-01-18T02:09:41.380Z,15.32
2023-01-18T02:12:08.207Z,21.80
2023-01-18T02:14:35.983Z,21.08
2023-01-18T02:17:24.503Z,21.77
2023-01-18T02:20:28.320Z,17.10
2023-01-18T02:23:16.698Z,20.00
2023-01-18T02:25:50.241Z,23.20
2023-01-18T02:28:18.831Z,17.45
2023-01-18T02:31:08.010Z,20.60
2023-01-18T02:33:56.276Z,20.15
2023-01-18T02:36:34.389Z,21.08
2023-01-18T02:39:07.235Z,19.75
2023-01-18T02:42:07.387Z,21.15
2023-01-18T02:44:57.251Z,23.60
2023-01-18T02:47:24.909Z,23.08
2023-01-18T02:49:51.649Z,33.15
2023-01-18T02:52:54.150Z,21.20
2023-01-18T02:55:30.349Z,22.40
2023-01-18T02:58:05.405Z,20.48
2023-01-18T03:00:34.456Z,20.65
2023-01-18T03:03:02.073Z,25.83
2023-01-18T03:05:31.827Z,22.52
2023-01-18T03:08:06.335Z,21.20
2023-01-18T03:10:35.691Z,26.08
2023-01-18T03:13:10.118Z,22.67
2023-01-18T03:15:52.475Z,22.77
2023-01-18T03:18:23.232Z,26.95
2023-01-18T03:20:53.502Z,21.23
2023-01-18T03:23:41.207Z,23.58
2023-01-18T03:26:17.057Z,25.35
2023-01-18T03:29:04.589Z,24.35
2023-01-18T03:31:58.481Z,20.08
2023-01-18T03:34:26.807Z,20.95
2023-01-18T03:36:56.170Z,22.13
2023-01-18T03:39:28.453Z,26.27
2023-01-18T03:41:59.489Z,20.33
2023-01-18T03:44:30.373Z,20.23
2023-01-18T03:46:57.561Z,22.27
2023-01-18T03:49:25.219Z,26.48
2023-01-18T03:52:02.085Z,28.30
2023-01-18T03:54:34.837Z,18.75
2023-01-18T03:57:10.414Z,22.35
2023-01-18T03:59:38.823Z,15.38
2023-01-18T04:02:07.257Z,19.80
2023-01-18T04:04:35.727Z,21.20
2023-01-18T04:07:02.918Z,20.33
2023-01-18T04:09:29.835Z,20.02
2023-01-18T04:11:56.663Z,18.00
2023-01-18T04:14:23.413Z,20.35
2023-01-18T04:16:50.391Z,20.55
2023-01-18T04:19:17.865Z,21.70
2023-01-18T04:21:44.714Z,22.90
2023-01-18T04:24:11.543Z,19.48
2023-01-18T04:26:38.583Z,20.13
2023-01-18T04:29:05.653Z,19.58
2023-01-18T04:31:32.499Z,16.90
2023-01-18T04:33:59.319Z,17.95
2023-01-18T04:36:26.020Z,17.13
2023-01-18T04:38:54.489Z,17.05
2023-01-18T04:41:21.569Z,15.18
2023-01-18T04:43:48.422Z,19.73
2023-01-18T04:46:15.557Z,17.20
2023-01-18T04:48:42.939Z,22.10
2023-01-18T04:51:13.966Z,15.30
2023-01-18T04:53:43.880Z,15.40
2023-01-18T04:56:11.337Z,21.92
2023-01-18T04:58:38.410Z,18.80
2023-01-18T05:01:06.701Z,13.80
2023-01-18T05:03:38.256Z,15.30
2023-01-18T05:06:10.824Z,15.57
2023-01-18T05:08:41.150Z,18.77
2023-01-18T05:11:12.993Z,18.83
2023-01-18T05:13:40.284Z,16.40
2023-01-18T05:16:08.537Z,18.38
2023-01-18T05:18:35.303Z,15.15
2023-01-18T05:21:02.132Z,15.80
2023-01-18T05:23:28.830Z,17.42
2023-01-18T05:25:56.969Z,15.23
2023-01-18T05:28:25.925Z,15.38
2023-01-18T05:30:53.437Z,13.25
2023-01-18T05:33:20.889Z,15.93
2023-01-18T05:35:51.835Z,17.05
2023-01-18T05:38:19.084Z,16.02
2023-01-18T05:40:48.719Z,17.65
2023-01-18T05:43:16.349Z,20.67
2023-01-18T05:45:43.505Z,18.58
2023-01-18T05:48:11.173Z,16.35
2023-01-18T05:50:43.648Z,16.20
2023-01-18T05:53:15.664Z,14.20
2023-01-18T05:55:42.520Z,14.65
2023-01-18T05:58:09.663Z,14.85
2023-01-18T06:00:36.557Z,13.48
2023-01-18T06:03:03.599Z,16.90
2023-01-18T06:05:30.974Z,20.02
2023-01-18T06:07:57.687Z,15.27
2023-01-18T06:10:24.636Z,12.82
2023-01-18T06:12:51.624Z,12.00
2023-01-18T06:15:19.161Z,15.80
2023-01-18T06:17:50.953Z,14.02
2023-01-18T06:20:17.796Z,14.95
2023-01-18T06:22:45.731Z,17.63
2023-01-18T06:25:12.551Z,11.75
2023-01-18T06:27:39.500Z,15.95
2023-01-18T06:30:07.444Z,16.15
2023-01-18T06:32:34.447Z,15.93
2023-01-18T06:35:01.276Z,14.40
2023-01-18T06:37:28.428Z,17.00
2023-01-18T06:39:55.361Z,16.85
2023-01-18T06:42:22.092Z,17.58
2023-01-18T06:44:49.272Z,14.52
2023-01-18T06:47:19.994Z,16.15
2023-01-18T06:49:50.632Z,13.82
2023-01-18T06:52:18.167Z,17.40
2023-01-18T06:54:45.221Z,17.50
2023-01-18T06:57:12.671Z,15.52
2023-01-18T06:59:40.125Z,16.88
2023-01-18T07:02:07.737Z,18.17
2023-01-18T07:04:38.108Z,15.30
2023-01-18T07:07:04.981Z,17.70
2023-01-18T07:09:31.954Z,17.30
2023-01-18T07:11:58.771Z,18.13
2023-01-18T07:14:25.720Z,14.25
2023-01-18T07:16:52.696Z,17.02
2023-01-18T07:19:19.570Z,15.85
2023-01-18T07:21:46.369Z,17.73
2023-01-18T07:24:13.244Z,20.88
2023-01-18T07:26:39.994Z,21.35
2023-01-18T07:29:10.404Z,16.77
2023-01-18T07:31:38.619Z,15.88
2023-01-18T07:34:05.444Z,22.85
2023-01-18T07:36:34.555Z,15.82
2023-01-18T07:39:03.335Z,15.63
2023-01-18T07:41:31.023Z,17.55
2023-01-18T07:43:58.536Z,13.48
2023-01-18T07:46:26.350Z,15.05
2023-01-18T07:48:53.333Z,14.02
2023-01-18T07:51:22.482Z,17.30
2023-01-18T07:53:53.835Z,17.45
2023-01-18T07:56:22.897Z,17.70
2023-01-18T07:58:49.715Z,18.95
2023-01-18T08:01:19.105Z,16.10
2023-01-18T08:03:49.913Z,19.02
2023-01-18T08:06:26.883Z,16.40
2023-01-18T08:08:57.292Z,18.02
2023-01-18T08:11:27.363Z,16.67
2023-01-18T08:13:54.253Z,15.20
2023-01-18T08:16:21.108Z,15.52
2023-01-18T08:18:53.593Z,14.13
2023-01-18T08:21:20.534Z,13.73
2023-01-18T08:23:47.365Z,15.75
2023-01-18T08:26:15.322Z,16.33
2023-01-18T08:28:42.342Z,24.70
2023-01-18T08:31:14.583Z,12.30
2023-01-18T08:33:47.805Z,19.05
2023-01-18T08:36:17.990Z,15.45
2023-01-18T08:38:49.446Z,21.25
2023-01-18T08:41:16.357Z,16.75
2023-01-18T08:43:43.198Z,15.02
2023-01-18T08:46:10.063Z,21.25
2023-01-18T08:48:37.034Z,15.70
2023-01-18T08:51:04.098Z,18.42
2023-01-18T08:53:31.489Z,14.88
2023-01-18T08:56:03.371Z,14.50
2023-01-18T08:58:32.344Z,17.30
2023-01-18T09:00:59.259Z,16.27
2023-01-18T09:03:26.167Z,18.98
2023-01-18T09:05:53.131Z,21.63
2023-01-18T09:08:20.495Z,19.15
2023-01-18T09:10:50.080Z,20.65
2023-01-18T09:13:17.040Z,18.27
2023-01-18T09:15:45.645Z,18.90
2023-01-18T09:18:13.480Z,19.73
2023-01-18T09:20:40.428Z,18.92
2023-01-18T09:23:08.928Z,16.58
2023-01-18T09:25:41.136Z,21.00
2023-01-18T09:28:08.153Z,19.40
2023-01-18T09:30:35.969Z,16.75
2023-01-18T09:33:02.821Z,18.98
2023-01-18T09:35:29.695Z,17.70
2023-01-18T09:37:57.749Z,17.13
2023-01-18T09:40:31.283Z,15.75
2023-01-18T09:42:58.726Z,20.42
2023-01-18T09:45:35.608Z,13.77
2023-01-18T09:48:09.198Z,20.20
2023-01-18T09:50:44.488Z,23.08
2023-01-18T09:53:37.121Z,21.55
2023-01-18T09:56:16.524Z,18.50
2023-01-18T09:59:10.712Z,18.75
2023-01-18T10:01:38.515Z,19.63
2023-01-18T10:04:13.368Z,15.80
2023-01-18T10:06:54.361Z,22.83
2023-01-18T10:09:27.756Z,20.73
2023-01-18T10:11:59.932Z,17.20
2023-01-18T10:14:53.701Z,19.65
2023-01-18T10:17:28.601Z,18.77
2023-01-18T10:19:55.660Z,17.52
2023-01-18T10:22:33.780Z,23.38
2023-01-18T10:25:14.176Z,17.35
2023-01-18T10:27:51.216Z,14.20
2023-01-18T10:30:49.185Z,22.95
2023-01-18T10:33:27.989Z,18.02
2023-01-18T10:35:58.516Z,18.50
2023-01-18T10:38:27.390Z,18.42
2023-01-18T10:41:01.403Z,14.95
2023-01-18T10:43:29.759Z,13.55
2023-01-18T10:45:56.672Z,16.02
2023-01-18T10:48:32.024Z,15.15
2023-01-18T10:51:05.417Z,12.70
2023-01-18T10:53:37.297Z,15.05
2023-01-18T10:56:26.329Z,15.00
2023-01-18T10:59:00.343Z,14.05
2023-01-18T11:01:33.733Z,12.80
2023-01-18T11:04:08.267Z,18.48
2023-01-18T11:06:53.758Z,14.63
2023-01-18T11:09:39.595Z,15.55
2023-01-18T11:12:34.524Z,10.82
2023-01-18T11:15:13.633Z,11.48
2023-01-18T11:17:44.104Z,17.20
2023-01-18T11:20:22.397Z,10.70
2023-01-18T11:23:17.578Z,10.73
2023-01-18T11:26:00.895Z,12.10
2023-01-18T11:28:39.736Z,11.95
2023-01-18T11:31:10.458Z,16.25
2023-01-18T11:33:59.915Z,10.63
2023-01-18T11:36:36.304Z,11.15
2023-01-18T11:39:21.683Z,10.07
2023-01-18T11:41:48.948Z,11.77
2023-01-18T11:44:23.058Z,10.75
2023-01-18T11:46:58.067Z,9.57
2023-01-18T11:49:28.804Z,11.13
2023-01-18T11:52:01.972Z,7.90
2023-01-18T11:54:46.752Z,7.60
2023-01-18T11:57:14.430Z,10.23
2023-01-18T11:59:43.654Z,9.88
2023-01-18T12:02:31.168Z,8.18
2023-01-18T12:05:03.954Z,5.25
2023-01-18T12:07:44.459Z,6.22
2023-01-18T12:10:19.239Z,6.50
2023-01-18T12:13:23.530Z,5.95
2023-01-18T12:16:25.305Z,4.78
2023-01-18T12:19:03.626Z,6.00
2023-01-18T12:22:09.666Z,5.33
2023-01-18T12:24:53.464Z,4.13
2023-01-18T12:27:36.035Z,3.90
2023-01-18T12:30:25.227Z,8.52
2023-01-18T12:33:16.459Z,3.55
2023-01-18T12:35:58.374Z,5.72
2023-01-18T12:38:29.944Z,4.50
2023-01-18T12:41:21.936Z,4.43
2023-01-18T12:44:21.037Z,7.97
2023-01-18T12:47:00.018Z,4.50
2023-01-18T12:49:30.923Z,9.70
2023-01-18T12:52:17.156Z,4.03
2023-01-18T12:54:51.753Z,4.20
2023-01-18T12:57:19.784Z,5.53
2023-01-18T12:59:56.289Z,4.17
2023-01-18T13:02:54.122Z,7.30
2023-01-18T13:05:44.144Z,7.57
2023-01-18T13:08:15.427Z,7.13
2023-01-18T13:10:42.648Z,3.23
2023-01-18T13:13:18.977Z,6.03
2023-01-18T13:15:56.380Z,4.00
2023-01-18T13:18:32.297Z,2.80
2023-01-18T13:21:18.245Z,5.80
2023-01-18T13:24:18.646Z,3.97
2023-01-18T13:26:45.717Z,2.40
2023-01-18T13:29:12.406Z,6.87
2023-01-18T13:31:39.379Z,7.63
2023-01-18T13:34:19.411Z,6.80
2023-01-18T13:36:47.480Z,6.53
2023-01-18T13:39:16.474Z,6.97
2023-01-18T13:42:08.073Z,4.77
2023-01-18T13:44:47.319Z,2.77
2023-01-18T13:47:35.745Z,4.33
2023-01-18T13:50:02.573Z,6.80
2023-01-18T13:52:35.884Z,3.17
2023-01-18T13:55:24.541Z,6.40
2023-01-18T13:57:55.579Z,3.97
2023-01-18T14:00:27.001Z,6.30
2023-01-18T14:03:06.326Z,4.80
2023-01-18T14:05:39.229Z,5.37
2023-01-18T14:08:06.369Z,5.57
2023-01-18T14:10:36.713Z,4.00
2023-01-18T14:13:05.882Z,3.95
2023-01-18T14:15:53.048Z,7.53
2023-01-18T14:18:25.512Z,6.10
2023-01-18T14:21:15.346Z,3.10
2023-01-18T14:24:07.815Z,4.33
2023-01-18T14:26:36.500Z,5.37
2023-01-18T14:29:07.466Z,5.90
2023-01-18T14:31:39.331Z,7.07
2023-01-18T14:34:37.177Z,5.47
2023-01-18T14:37:23.285Z,5.17
2023-01-18T14:40:11.363Z,5.30
2023-01-18T14:42:48.199Z,5.73
2023-01-18T14:45:23.108Z,3.30
2023-01-18T14:47:50.126Z,6.40
2023-01-18T14:50:21.909Z,5.80
2023-01-18T14:52:50.567Z,3.57
2023-01-18T14:55:34.982Z,7.57
2023-01-18T14:58:08.994Z,6.50
2023-01-18T15:00:46.237Z,3.23
2023-01-18T15:03:14.887Z,3.58
2023-01-18T15:05:42.262Z,5.43
2023-01-18T15:08:11.205Z,6.37
2023-01-18T15:10:41.960Z,4.40
2023-01-18T15:13:10.127Z,5.93
2023-01-18T15:15:43.125Z,5.40
2023-01-18T15:18:19.061Z,8.57
2023-01-18T15:20:59.517Z,7.03
2023-01-18T15:23:27.744Z,18.00
2023-01-18T15:25:55.425Z,10.10
2023-01-18T15:28:24.458Z,9.70
2023-01-18T15:30:55.152Z,9.50
2023-01-18T15:33:24.527Z,16.03
2023-01-18T15:35:55.167Z,12.37
2023-01-18T15:38:22.334Z,9.60
2023-01-18T15:41:12.544Z,6.72
2023-01-18T15:43:46.471Z,10.43
2023-01-18T15:46:15.905Z,10.47
2023-01-18T15:49:13.238Z,8.70
2023-01-18T15:51:57.176Z,10.00
2023-01-18T15:54:29.151Z,7.30
2023-01-18T15:57:18.912Z,11.20
2023-01-18T15:59:47.687Z,12.77
2023-01-18T16:02:19.142Z,10.63
2023-01-18T16:04:46.467Z,11.53
2023-01-18T16:07:34.566Z,8.33
2023-01-18T16:10:28.073Z,13.60
2023-01-18T16:13:21.889Z,8.02
2023-01-18T16:16:22.928Z,8.17
2023-01-18T16:18:59.068Z,8.32
2023-01-18T16:21:45.538Z,7.00
2023-01-18T16:24:25.402Z,10.40
2023-01-18T16:26:52.769Z,12.30
2023-01-18T16:29:19.892Z,8.73
2023-01-18T16:31:48.560Z,8.05
2023-01-18T16:34:26.431Z,8.82
2023-01-18T16:36:54.481Z,7.90
2023-01-18T16:39:21.700Z,8.65
2023-01-18T16:41:54.744Z,9.45
2023-01-18T16:44:21.986Z,6.82
2023-01-18T16:46:49.421Z,11.18
2023-01-18T16:49:16.352Z,7.90
2023-01-18T16:51:43.203Z,11.95
2023-01-18T16:54:10.004Z,11.90
2023-01-18T16:56:36.961Z,10.70
2023-01-18T16:59:12.379Z,11.07
2023-01-18T17:01:41.550Z,8.15
2023-01-18T17:04:11.517Z,9.90
2023-01-18T17:06:39.945Z,9.52
2023-01-18T17:09:19.737Z,12.38
2023-01-18T17:11:47.279Z,8.55
2023-01-18T17:14:14.097Z,14.43
2023-01-18T17:16:43.227Z,8.38
2023-01-18T17:19:12.050Z,11.65
2023-01-18T17:21:39.090Z,8.48
2023-01-18T17:24:06.203Z,9.93
2023-01-18T17:26:33.074Z,12.52
2023-01-18T17:28:59.926Z,10.85
2023-01-18T17:31:27.848Z,12.55
2023-01-18T17:33:54.800Z,9.27
2023-01-18T17:36:21.822Z,10.00
2023-01-18T17:38:48.780Z,13.48
2023-01-18T17:41:27.274Z,10.65
2023-01-18T17:43:55.600Z,8.35
2023-01-18T17:46:22.369Z,11.73
2023-01-18T17:48:49.451Z,11.38
2023-01-18T17:51:16.246Z,14.48
2023-01-18T17:53:43.407Z,11.85
2023-01-18T17:56:12.098Z,9.65
2023-01-18T17:58:39.181Z,11.57
2023-01-18T18:01:10.545Z,11.80
2023-01-18T18:03:43.420Z,12.82
2023-01-18T18:06:12.666Z,11.13
2023-01-18T18:08:39.600Z,13.82
2023-01-18T18:11:10.866Z,10.95
2023-01-18T18:13:37.985Z,11.25
2023-01-18T18:16:05.165Z,12.23
2023-01-18T18:18:32.198Z,10.27
2023-01-18T18:21:01.594Z,14.32
2023-01-18T18:23:29.142Z,14.52
2023-01-18T18:25:56.668Z,10.85
2023-01-18T18:28:24.889Z,11.57
2023-01-18T18:30:51.772Z,14.00
2023-01-18T18:33:19.593Z,9.00
2023-01-18T18:35:50.186Z,7.78
2023-01-18T18:38:27.417Z,10.30
2023-01-18T18:40:54.785Z,11.70
2023-01-18T18:43:21.740Z,12.55
2023-01-18T18:45:48.549Z,11.25
2023-01-18T18:48:15.441Z,14.07
2023-01-18T18:50:42.241Z,7.05
2023-01-18T18:53:09.133Z,13.65
2023-01-18T18:55:35.997Z,8.57
2023-01-18T18:58:03.608Z,11.52
2023-01-18T19:00:30.588Z,12.20
2023-01-18T19:03:02.211Z,9.07
2023-01-18T19:05:30.179Z,12.02
2023-01-18T19:07:57.229Z,8.68
2023-01-18T19:10:27.694Z,11.48
2023-01-18T19:12:55.242Z,11.13
2023-01-18T19:15:22.411Z,9.43
2023-01-18T19:17:53.284Z,9.95
2023-01-18T19:20:22.059Z,10.75
2023-01-18T19:22:50.576Z,7.90
2023-01-18T19:28:22.219Z,10.52
2023-01-18T19:30:49.233Z,14.60
2023-01-18T19:33:16.521Z,8.60
2023-01-18T19:35:46.086Z,8.35
2023-01-18T19:38:13.601Z,7.72
2023-01-18T19:40:40.518Z,8.70
2023-01-18T19:43:07.319Z,8.75
2023-01-18T19:45:34.177Z,7.53
2023-01-18T19:48:02.300Z,9.30
2023-01-18T19:50:30.347Z,8.00
2023-01-18T19:52:57.801Z,13.02
2023-01-18T19:55:25.394Z,7.40
2023-01-18T19:57:55.504Z,9.73
2023-01-18T20:00:22.807Z,12.02
2023-01-18T20:02:49.681Z,10.27
2023-01-18T20:05:16.831Z,7.90
2023-01-18T20:07:44.485Z,9.98
2023-01-18T20:10:11.799Z,10.48
2023-01-18T20:12:38.634Z,8.52
2023-01-18T20:15:06.253Z,11.18
2023-01-18T20:17:33.441Z,8.50
2023-01-18T20:20:00.523Z,11.05
2023-01-18T20:22:27.574Z,9.95
2023-01-18T20:24:55.032Z,11.23
2023-01-18T20:27:21.896Z,10.07
2023-01-18T20:29:49.224Z,9.77
2023-01-18T20:32:17.816Z,11.98
2023-01-18T20:34:47.420Z,13.38
2023-01-18T20:37:15.081Z,11.95
2023-01-18T20:39:42.421Z,8.50
2023-01-18T20:42:09.397Z,9.35
2023-01-18T20:44:36.348Z,13.15
2023-01-18T20:47:03.446Z,16.42
2023-01-18T20:49:37.703Z,10.68
2023-01-18T20:52:06.865Z,10.45
2023-01-18T20:54:36.867Z,11.43
2023-01-18T20:57:05.582Z,14.52
2023-01-18T20:59:33.352Z,11.15
2023-01-18T21:02:00.465Z,13.55
2023-01-18T21:04:27.463Z,15.43
2023-01-18T21:06:54.498Z,11.63
2023-01-18T21:09:21.420Z,13.98
2023-01-18T21:11:48.440Z,9.40
2023-01-18T21:14:16.140Z,11.05
2023-01-18T21:16:43.510Z,12.93
2023-01-18T21:19:10.454Z,13.57
2023-01-18T21:21:37.494Z,11.38
2023-01-18T21:24:04.534Z,12.70
2023-01-18T21:26:31.295Z,9.82
2023-01-18T21:28:59.260Z,9.00
2023-01-18T21:31:26.389Z,11.02
2023-01-18T21:33:54.404Z,13.40
2023-01-18T21:36:23.716Z,12.55
2023-01-18T21:38:51.888Z,9.25
2023-01-18T21:41:37.273Z,11.32
2023-01-18T21:44:23.525Z,10.88
2023-01-18T21:46:51.948Z,9.95
2023-01-18T21:52:43.776Z,11.85
2023-01-18T21:55:11.288Z,9.93
2023-01-18T21:57:38.735Z,11.77
2023-01-18T22:00:06.451Z,11.40
2023-01-18T22:02:36.594Z,9.88
2023-01-18T22:05:04.088Z,11.50
2023-01-18T22:07:33.932Z,11.55
2023-01-18T22:10:05.987Z,10.93
2023-01-18T22:12:36.776Z,11.80
2023-01-18T22:15:04.697Z,11.73
2023-01-18T22:17:31.699Z,10.13
2023-01-18T22:19:58.691Z,11.52
2023-01-18T22:22:25.535Z,11.70
2023-01-18T22:24:52.362Z,13.77
2023-01-18T22:27:19.075Z,15.10
2023-01-18T22:29:45.778Z,13.88
2023-01-18T22:32:12.547Z,14.27
2023-01-18T22:34:39.519Z,14.23
2023-01-18T22:37:06.336Z,14.27
2023-01-18T22:39:33.451Z,15.65
2023-01-18T22:42:00.239Z,10.90
2023-01-18T22:44:27.062Z,12.45
2023-01-18T22:46:53.765Z,11.90
2023-01-18T22:49:20.495Z,11.60
2023-01-18T22:51:47.752Z,10.85
2023-01-18T22:54:15.191Z,11.52
2023-01-18T22:56:41.996Z,13.85
2023-01-18T22:59:09.094Z,14.15
2023-01-18T23:01:36.168Z,13.30
2023-01-18T23:04:04.159Z,10.40
2023-01-18T23:06:52.014Z,11.60
2023-01-18T23:09:18.899Z,12.98
2023-01-18T23:11:47.648Z,12.27
2023-01-18T23:14:33.017Z,12.95
2023-01-18T23:17:18.577Z,12.60
2023-01-18T23:19:46.584Z,12.77
2023-01-18T23:22:13.736Z,13.45
2023-01-18T23:24:40.907Z,15.70
2023-01-18T23:27:12.277Z,11.63
2023-01-18T23:29:39.946Z,15.20
2023-01-18T23:32:07.537Z,12.27
2023-01-18T23:34:34.444Z,11.10
2023-01-18T23:37:01.202Z,11.48
2023-01-18T23:39:47.412Z,12.75
2023-01-18T23:42:32.886Z,13.27
2023-01-18T23:45:18.183Z,11.77
2023-01-18T23:48:04.112Z,14.07
2023-01-18T23:50:49.704Z,16.48
2023-01-18T23:53:35.048Z,13.27
2023-01-18T23:56:01.920Z,13.50
2023-01-18T23:58:28.864Z,13.52
